Time;durP1;ratioP1;P1;durP2;ratioP2;P2;SDS_P1;SDS_P2;PMS_P1;PMS_P2;Temp;Humidity;BMP_temperature;BMP_pressure;BME280_temperature;BME280_humidity;BME280_pressure;Samples;Min_cycle;Max_cycle;Signal;HPM_P1;HPM_P2
2022/05/28 00:02:22;;;;;;;22.42;6.13;;;;;;;24.25;57.03;100304.97;4946490;28;20043;-58
2022/05/28 00:05:07;;;;;;;16.75;5.43;;;;;;;24.28;56.79;100306.13;4945659;29;20432;-60
2022/05/28 00:07:52;;;;;;;14.27;4.07;;;;;;;24.24;57.59;100308.16;4946315;29;20044;-60
2022/05/28 00:10:37;;;;;;;15.40;4.80;;;;;;;24.24;57.80;100303.41;4944577;29;20055;-60
2022/05/28 00:13:23;;;;;;;18.50;6.05;;;;;;;24.25;57.59;100304.97;4948414;29;20043;-60
2022/05/28 00:16:08;;;;;;;23.23;5.93;;;;;;;24.28;56.96;100314.47;4956822;29;20058;-60
2022/05/28 00:18:54;;;;;;;32.30;8.07;;;;;;;24.36;56.62;100304.03;4956601;29;20557;-60
2022/05/28 00:21:38;;;;;;;34.53;9.23;;;;;;;23.96;58.06;100297.41;4955994;29;20052;-60
2022/05/28 00:24:23;;;;;;;33.13;9.30;;;;;;;23.57;60.05;100293.09;4943376;29;20043;-60
2022/05/28 00:27:08;;;;;;;23.70;6.90;;;;;;;23.55;59.99;100286.41;4944558;29;20043;-60
2022/05/28 00:29:53;;;;;;;15.45;6.05;;;;;;;23.66;59.81;100287.84;4953193;28;20031;-60
2022/05/28 00:32:38;;;;;;;13.73;5.32;;;;;;;23.77;59.40;100282.94;4948486;29;20055;-60
2022/05/28 00:35:23;;;;;;;24.38;7.60;;;;;;;23.85;58.49;100278.91;4954207;29;20179;-60
2022/05/28 00:38:08;;;;;;;20.65;6.80;;;;;;;23.86;58.08;100271.34;4956226;29;20047;-60
2022/05/28 00:40:56;;;;;;;13.68;5.68;;;;;;;23.92;58.13;100268.91;4937096;29;20051;-60
2022/05/28 00:43:43;;;;;;;13.30;5.93;;;;;;;23.94;57.89;100269.25;4936969;29;20499;-60
2022/05/28 00:46:31;;;;;;;14.05;5.85;;;;;;;23.93;58.70;100267.69;4960646;23;20051;-81
2022/05/28 00:49:23;;;;;;;11.57;4.68;;;;;;;23.98;58.51;100261.66;4949374;28;20044;-79
2022/05/28 00:52:10;;;;;;;9.25;4.22;;;;;;;23.94;58.53;100255.38;4934714;28;20051;-81
2022/05/28 00:54:55;;;;;;;18.75;6.90;;;;;;;23.96;58.26;100264.88;4942912;29;20420;-81
2022/05/28 00:57:41;;;;;;;14.10;6.85;;;;;;;24.00;57.96;100251.72;4940976;29;20432;-80
2022/05/28 01:00:27;;;;;;;19.85;6.57;;;;;;;23.91;58.24;100245.09;4934709;29;20044;-80
2022/05/28 01:03:29;;;;;;;24.80;9.50;;;;;;;23.85;58.09;100242.00;4948755;29;20043;-78
2022/05/28 01:06:30;;;;;;;15.55;6.18;;;;;;;23.67;59.18;100239.44;4959631;28;20043;-80
2022/05/28 01:09:44;;;;;;;15.20;6.70;;;;;;;23.70;59.09;100237.81;4947421;28;20046;-79
2022/05/28 01:12:41;;;;;;;25.77;7.43;;;;;;;23.78;58.72;100228.19;4938066;28;20051;-79
2022/05/28 01:15:33;;;;;;;27.35;8.57;;;;;;;23.78;58.66;100230.97;4951329;28;20043;-79
2022/05/28 01:18:27;;;;;;;18.88;6.65;;;;;;;23.76;58.68;100231.41;4940245;29;20046;-80
2022/05/28 01:21:30;;;;;;;15.95;7.35;;;;;;;23.77;59.08;100230.19;4939013;29;20043;-76
2022/05/28 01:24:49;;;;;;;18.63;8.20;;;;;;;23.79;58.80;100238.91;4936605;29;20055;-79
2022/05/28 01:27:41;;;;;;;25.52;10.15;;;;;;;23.76;58.62;100233.41;4952198;28;20052;-80
2022/05/28 01:30:26;;;;;;;24.02;9.57;;;;;;;23.66;58.42;100229.56;4935611;29;20035;-79
2022/05/28 01:33:14;;;;;;;26.17;9.65;;;;;;;23.59;58.43;100226.84;4941726;28;20054;-79
2022/05/28 01:36:00;;;;;;;24.63;8.23;;;;;;;23.51;59.73;100224.59;4917670;29;20497;-77
2022/05/28 01:38:47;;;;;;;28.05;7.80;;;;;;;23.37;59.76;100228.25;4917549;29;20421;-77
2022/05/28 01:41:35;;;;;;;22.30;7.60;;;;;;;23.47;59.97;100215.53;4926348;29;20388;-79
2022/05/28 01:44:22;;;;;;;24.23;8.27;;;;;;;23.49;59.64;100213.91;4938187;29;20051;-78
2022/05/28 01:47:07;;;;;;;21.30;8.15;;;;;;;23.56;59.36;100210.25;4935757;29;20393;-79
2022/05/28 01:49:52;;;;;;;26.77;9.55;;;;;;;23.62;58.77;100203.81;4939138;28;20416;-80
2022/05/28 01:52:38;;;;;;;23.23;8.57;;;;;;;23.37;59.30;100194.97;4939794;28;20047;-79
2022/05/28 01:55:26;;;;;;;24.27;9.00;;;;;;;23.43;59.50;100187.75;4949266;28;20060;-79
2022/05/28 01:58:11;;;;;;;21.42;7.78;;;;;;;23.30;59.91;100187.53;4939282;29;20048;-79
2022/05/28 02:00:58;;;;;;;27.67;9.77;;;;;;;23.10;60.62;100180.22;4951161;28;20042;-79
2022/05/28 02:03:47;;;;;;;31.55;10.20;;;;;;;23.11;60.95;100179.03;4917569;29;20052;-79
2022/05/28 02:06:34;;;;;;;21.80;8.63;;;;;;;22.86;61.97;100174.53;4939435;29;20044;-78
2022/05/28 02:09:26;;;;;;;27.65;10.63;;;;;;;22.60;62.61;100162.06;4952525;28;20055;-78
2022/05/28 02:12:30;;;;;;;25.15;8.70;;;;;;;22.72;62.58;100171.09;4932720;29;20039;-80
2022/05/28 02:15:46;;;;;;;24.83;8.70;;;;;;;22.77;61.49;100165.91;4941116;28;20051;-77
2022/05/28 02:18:53;;;;;;;;;;;;;;;22.70;62.64;100165.16;4921978;29;20050;-77
2022/05/28 02:21:47;;;;;;;20.63;8.55;;;;;;;22.90;61.45;100161.44;4937575;29;19915;-79
2022/05/28 02:24:40;;;;;;;16.35;7.97;;;;;;;23.00;60.70;100160.53;4916256;29;20044;-80
2022/05/28 02:27:27;;;;;;;21.75;8.30;;;;;;;23.11;60.75;100162.41;4906694;29;20048;-79
2022/05/28 02:30:12;;;;;;;22.98;7.70;;;;;;;23.14;60.71;100156.78;4917995;29;20055;-80
2022/05/28 02:33:06;;;;;;;20.75;8.45;;;;;;;23.24;59.99;100158.66;4938861;28;20510;-78
2022/05/28 02:35:50;;;;;;;25.83;8.40;;;;;;;23.08;60.47;100160.44;4939645;28;20040;-78
2022/05/28 02:38:37;;;;;;;25.25;10.55;;;;;;;22.91;60.92;100154.66;4936134;29;20047;-80
2022/05/28 02:41:22;;;;;;;29.05;9.85;;;;;;;22.56;62.87;100152.22;4934877;29;20039;-80
2022/05/28 02:44:09;;;;;;;21.13;9.63;;;;;;;22.22;63.63;100151.31;4938609;29;20059;-77
2022/05/28 02:46:56;;;;;;;23.02;10.63;;;;;;;21.89;64.99;100155.50;4936515;29;20059;-76
2022/05/28 02:49:42;;;;;;;24.88;9.57;;;;;;;21.40;67.18;100156.53;4934034;29;20048;-80
2022/05/28 02:52:26;;;;;;;24.05;10.45;;;;;;;21.87;65.65;100164.19;4925572;29;20051;-80
2022/05/28 02:55:11;;;;;;;30.17;10.15;;;;;;;22.11;64.33;100163.28;4951657;28;20508;-81
2022/05/28 02:57:56;;;;;;;20.08;8.95;;;;;;;22.25;64.19;100158.84;4940128;28;20496;-78
2022/05/28 03:00:41;;;;;;;21.50;8.38;;;;;;;22.33;63.67;100155.59;4951999;28;20047;-79
2022/05/28 03:03:26;;;;;;;18.45;8.98;;;;;;;22.38;63.12;100159.91;4934376;29;20047;-77
2022/05/28 03:06:12;;;;;;;19.25;8.73;;;;;;;22.53;62.29;100153.03;4934728;29;20051;-80
2022/05/28 03:08:57;;;;;;;18.23;8.02;;;;;;;22.56;61.91;100163.28;4935838;29;20044;-80
2022/05/28 03:11:42;;;;;;;29.33;9.60;;;;;;;22.49;62.24;100155.06;4935831;29;20055;-80
2022/05/28 03:14:27;;;;;;;29.67;9.60;;;;;;;22.45;62.29;100152.31;4931752;29;20039;-79
2022/05/28 03:17:12;;;;;;;21.13;8.45;;;;;;;22.53;62.10;100144.72;4940086;29;20048;-79
2022/05/28 03:19:59;;;;;;;15.18;8.40;;;;;;;22.56;62.15;100146.66;4931256;29;20046;-79
2022/05/28 03:22:44;;;;;;;19.80;9.68;;;;;;;22.59;62.31;100148.63;4930502;29;20047;-77
2022/05/28 03:25:29;;;;;;;17.80;8.00;;;;;;;22.60;62.29;100156.53;4938320;29;20047;-79
2022/05/28 03:28:15;;;;;;;20.13;8.00;;;;;;;22.74;60.86;100155.66;4949731;28;20043;-78
2022/05/28 03:31:00;;;;;;;19.70;8.43;;;;;;;22.75;60.68;100156.44;4934950;29;20416;-78
2022/05/28 03:33:45;;;;;;;28.85;9.63;;;;;;;22.66;61.06;100154.09;4938563;28;20050;-79
2022/05/28 03:36:30;;;;;;;21.40;8.80;;;;;;;22.54;61.47;100143.53;4940291;28;20066;-79
2022/05/28 03:39:15;;;;;;;16.65;8.60;;;;;;;22.51;61.61;100147.91;4936267;29;20519;-78
2022/05/28 03:42:01;;;;;;;19.33;8.05;;;;;;;22.57;61.51;100151.81;4946424;28;20040;-77
2022/05/28 03:44:46;;;;;;;22.70;9.05;;;;;;;22.54;61.25;100146.31;4941585;28;20036;-78
2022/05/28 03:47:33;;;;;;;15.95;8.35;;;;;;;22.58;61.62;100149.81;4934461;28;20040;-77
2022/05/28 03:50:19;;;;;;;19.27;7.57;;;;;;;22.64;61.41;100148.19;4941623;28;20511;-79
2022/05/28 03:53:04;;;;;;;17.92;7.90;;;;;;;22.74;60.91;100152.88;4948154;28;20070;-79
2022/05/28 03:55:49;;;;;;;19.60;8.38;;;;;;;22.82;61.02;100151.59;4934847;29;20055;-79
2022/05/28 03:58:34;;;;;;;34.05;10.23;;;;;;;22.69;60.39;100149.72;4934421;29;20043;-78
2022/05/28 04:01:20;;;;;;;19.80;8.20;;;;;;;22.35;61.45;100142.09;4931687;29;20417;-78
2022/05/28 04:04:06;;;;;;;17.40;8.95;;;;;;;22.40;62.01;100138.88;4941343;28;20425;-78
2022/05/28 04:06:51;;;;;;;24.40;10.02;;;;;;;22.53;61.27;100139.97;4937926;29;20070;-75
2022/05/28 04:09:36;;;;;;;15.95;8.13;;;;;;;22.63;61.49;100143.84;4941059;28;20040;-78
2022/05/28 04:12:22;;;;;;;23.75;9.60;;;;;;;22.82;60.48;100140.50;4941457;28;20044;-79
2022/05/28 04:15:08;;;;;;;19.65;8.65;;;;;;;22.85;60.92;100144.44;4921308;29;20043;-78
2022/05/28 04:17:55;;;;;;;19.73;8.00;;;;;;;22.91;60.84;100145.56;4943055;28;20055;-78
2022/05/28 04:20:40;;;;;;;27.60;9.43;;;;;;;23.00;60.71;100140.31;4936577;29;20040;-78
2022/05/28 04:23:25;;;;;;;27.70;9.20;;;;;;;22.99;60.70;100142.31;4931272;29;20047;-79
2022/05/28 04:26:10;;;;;;;34.67;10.20;;;;;;;23.02;60.75;100140.69;4919549;29;20044;-77
2022/05/28 04:28:55;;;;;;;18.20;9.77;;;;;;;22.91;61.03;100145.56;4916193;29;20044;-76
2022/05/28 04:31:40;;;;;;;22.75;9.77;;;;;;;22.82;61.59;100146.03;4916913;29;20052;-77
2022/05/28 04:34:25;;;;;;;23.95;9.40;;;;;;;22.75;61.85;100148.91;4929837;29;20137;-78
2022/05/28 04:37:10;;;;;;;16.55;8.40;;;;;;;22.81;61.88;100140.91;4934081;29;20059;-78
2022/05/28 04:39:56;;;;;;;21.35;9.07;;;;;;;22.99;61.39;100139.53;4941827;29;20039;-78
2022/05/28 04:42:41;;;;;;;21.75;9.80;;;;;;;23.08;61.08;100133.47;4933516;29;20043;-77
2022/05/28 04:45:27;;;;;;;28.15;10.98;;;;;;;23.05;61.49;100147.41;4933780;29;20048;-76
2022/05/28 04:48:13;;;;;;;27.63;8.80;;;;;;;23.11;60.84;100143.75;4942172;28;20039;-76
2022/05/28 04:50:58;;;;;;;24.23;9.32;;;;;;;23.22;60.98;100144.41;4914754;29;20413;-80
2022/05/28 04:53:43;;;;;;;21.77;9.80;;;;;;;23.42;60.78;100147.31;4914765;29;20055;-78
2022/05/28 04:56:28;;;;;;;25.83;9.75;;;;;;;23.40;61.48;100146.97;4937613;28;20505;-77
2022/05/28 04:59:13;;;;;;;22.40;9.63;;;;;;;23.47;61.11;100146.91;4944954;29;20031;-77
2022/05/28 05:01:58;;;;;;;20.20;9.05;;;;;;;23.57;60.61;100145.97;4923672;29;20055;-77
2022/05/28 05:04:43;;;;;;;18.02;8.98;;;;;;;23.66;59.93;100143.50;4926809;29;20043;-78
2022/05/28 05:07:28;;;;;;;31.45;11.30;;;;;;;23.64;61.54;100137.56;4928594;28;20044;-76
2022/05/28 05:10:13;;;;;;;39.50;11.45;;;;;;;23.68;61.88;100140.28;4933289;28;20044;-80
2022/05/28 05:13:03;;;;;;;28.98;11.52;;;;;;;23.73;61.08;100137.03;4947355;28;20039;-77
2022/05/28 05:15:48;;;;;;;20.90;10.13;;;;;;;23.84;60.93;100137.66;4926313;29;20412;-79
2022/05/28 05:18:34;;;;;;;18.83;8.82;;;;;;;23.90;60.18;100136.00;4936913;29;20043;-79
2022/05/28 05:21:19;;;;;;;17.25;9.45;;;;;;;23.95;59.77;100134.72;4944221;29;20046;-77
2022/05/28 05:24:05;;;;;;;18.98;9.45;;;;;;;24.11;59.50;100132.09;4931166;29;20048;-78
2022/05/28 05:26:51;;;;;;;18.90;9.98;;;;;;;24.18;59.02;100137.56;4935251;28;20501;-77
2022/05/28 05:29:38;;;;;;;24.55;7.65;;;;;;;24.21;58.36;100136.72;4957275;28;20044;-80
2022/05/28 05:32:23;;;;;;;17.50;8.45;;;;;;;24.28;58.31;100125.47;4949644;28;20044;-77
2022/05/28 05:35:09;;;;;;;15.85;8.23;;;;;;;24.37;57.90;100125.75;4945756;28;20537;-77
2022/05/28 05:37:54;;;;;;;16.98;9.38;;;;;;;24.40;58.02;100126.88;4944994;28;20040;-78
2022/05/28 05:40:39;;;;;;;24.83;9.55;;;;;;;24.43;57.95;100128.81;4943066;29;20039;-77
2022/05/28 05:43:24;;;;;;;22.25;9.27;;;;;;;24.53;57.80;100128.63;4956236;28;20101;-78
2022/05/28 05:46:09;;;;;;;31.98;9.20;;;;;;;24.64;57.26;100120.88;4938586;28;20428;-77
2022/05/28 05:48:54;;;;;;;23.30;9.68;;;;;;;24.73;57.13;100122.31;4939427;29;20054;-79
2022/05/28 05:51:44;;;;;;;17.52;9.40;;;;;;;24.89;56.30;100122.44;4959389;28;20047;-79
2022/05/28 05:54:31;;;;;;;23.63;9.30;;;;;;;25.10;55.81;100110.88;4971327;28;20043;-79
2022/05/28 05:57:15;;;;;;;22.60;9.07;;;;;;;25.16;55.49;100111.16;4951736;28;20338;-80
2022/05/28 06:00:00;;;;;;;22.35;9.35;;;;;;;25.22;55.40;100109.47;4936308;29;20039;-78
2022/05/28 06:02:45;;;;;;;27.70;9.23;;;;;;;25.28;55.12;100114.09;4938709;29;20051;-80
2022/05/28 06:05:31;;;;;;;17.45;8.40;;;;;;;25.29;55.15;100114.88;4944562;29;20051;-80
2022/05/28 06:08:17;;;;;;;19.23;9.18;;;;;;;25.32;54.82;100117.59;4937813;29;20048;-78
2022/05/28 06:11:02;;;;;;;15.35;8.18;;;;;;;25.42;54.52;100116.56;4954279;28;20047;-79
2022/05/28 06:13:47;;;;;;;21.42;7.95;;;;;;;25.42;55.06;100119.34;4935727;29;20052;-80
2022/05/28 06:16:33;;;;;;;19.73;8.98;;;;;;;25.53;54.75;100117.13;4933513;29;20419;-78
2022/05/28 06:19:17;;;;;;;19.13;9.40;;;;;;;25.67;54.36;100120.81;4927691;29;20445;-78
2022/05/28 06:22:02;;;;;;;16.65;8.52;;;;;;;25.80;54.08;100118.94;4926886;28;20509;-77
2022/05/28 06:24:47;;;;;;;41.25;10.82;;;;;;;25.58;55.08;100120.66;4928609;29;20043;-80
2022/05/28 06:27:33;;;;;;;39.15;9.68;;;;;;;25.54;54.89;100113.13;4932378;28;20520;-78
2022/05/28 06:30:19;;;;;;;71.47;10.45;;;;;;;25.53;54.89;100117.13;4922715;29;20092;-78
2022/05/28 06:33:04;;;;;;;43.10;9.82;;;;;;;25.61;54.44;100111.41;4923185;29;20044;-79
2022/05/28 06:35:59;;;;;;;27.10;9.05;;;;;;;25.78;53.81;100113.03;4930835;28;20035;-79
2022/05/28 06:38:45;;;;;;;20.45;7.75;;;;;;;26.03;52.84;100112.44;4934831;28;20031;-79
2022/05/28 06:41:30;;;;;;;17.17;8.13;;;;;;;26.06;52.85;100115.13;4940793;28;20036;-79
2022/05/28 06:44:15;;;;;;;28.92;8.35;;;;;;;26.19;52.24;100104.84;4941185;28;20050;-77
2022/05/28 06:47:00;;;;;;;18.40;7.20;;;;;;;26.36;50.17;100098.06;4935047;28;20124;-80
2022/05/28 06:51:01;;;;;;;19.48;7.22;;;;;;;26.26;50.39;100098.34;4967742;23;20571;-80
2022/05/28 06:52:50;;;;;;;14.55;4.97;;;;;;;26.33;49.33;100087.78;4968644;28;20039;-80
2022/05/28 06:55:36;;;;;;;14.70;5.65;;;;;;;26.28;50.61;100090.31;4982621;28;20057;-81
2022/05/28 06:58:21;;;;;;;11.73;5.22;;;;;;;26.32;49.83;100086.22;4960901;28;20054;-80
2022/05/28 07:01:09;;;;;;;17.23;6.95;;;;;;;26.17;51.60;100084.97;4957329;28;20035;-79
2022/05/28 07:03:54;;;;;;;15.70;5.63;;;;;;;26.16;51.24;100082.66;4963727;28;20058;-79
2022/05/28 07:06:39;;;;;;;19.35;4.88;;;;;;;26.37;50.38;100076.53;4943255;28;20051;-78
2022/05/28 07:09:25;;;;;;;234.20;39.30;;;;;;;26.30;50.06;100068.38;4947365;29;20051;-78
2022/05/28 07:12:10;;;;;;;30.55;11.57;;;;;;;26.45;48.61;100079.94;4944631;28;20043;-85
2022/05/28 07:14:55;;;;;;;17.15;4.65;;;;;;;26.67;47.61;100072.53;4937447;29;20416;-86
2022/05/28 07:17:40;;;;;;;;;;;;;;;26.74;47.47;100073.16;4945042;28;20115;-84
2022/05/28 07:20:24;;;;;;;13.85;4.10;;;;;;;27.06;46.53;100074.28;4946107;28;20403;-84
2022/05/28 07:23:15;;;;;;;7.20;3.75;;;;;;;27.14;46.08;100076.41;4940087;29;20070;-83
2022/05/28 07:26:10;;;;;;;12.63;4.88;;;;;;;27.05;46.42;100065.13;4946313;29;20524;-84
2022/05/28 07:28:55;;;;;;;15.77;5.38;;;;;;;27.07;46.58;100064.69;4937960;29;20051;-84
2022/05/28 07:31:40;;;;;;;28.80;5.50;;;;;;;27.04;46.78;100063.53;4939789;29;20510;-84
2022/05/28 07:34:25;;;;;;;18.65;4.78;;;;;;;27.14;46.67;100056.06;4953762;28;20036;-85
2022/05/28 07:37:10;;;;;;;15.00;4.57;;;;;;;27.26;45.72;100057.34;4943985;29;20059;-84
2022/05/28 07:39:56;;;;;;;11.80;3.80;;;;;;;27.17;45.54;100050.38;4950485;28;20055;-83
2022/05/28 07:42:40;;;;;;;10.57;3.58;;;;;;;27.20;45.49;100057.88;4943785;28;20035;-85
2022/05/28 07:45:26;;;;;;;15.02;4.22;;;;;;;27.31;45.10;100059.56;4952147;28;20048;-86
2022/05/28 07:48:12;;;;;;;14.40;3.60;;;;;;;27.36;45.53;100067.41;4928796;29;20063;-86
2022/05/28 07:50:57;;;;;;;13.35;4.43;;;;;;;27.35;45.27;100057.44;4944859;28;20043;-87
2022/05/28 07:53:42;;;;;;;9.27;3.50;;;;;;;27.46;45.53;100074.66;4942643;29;20047;-86
2022/05/28 07:56:28;;;;;;;16.13;4.65;;;;;;;27.41;45.36;100069.63;4954722;28;20532;-85
2022/05/28 07:59:13;;;;;;;13.35;4.95;;;;;;;27.56;45.01;100059.63;4948015;28;20043;-87
2022/05/28 08:01:58;;;;;;;19.83;3.88;;;;;;;27.50;45.29;100061.41;4932754;29;20425;-85
2022/05/28 08:04:43;;;;;;;12.73;3.30;;;;;;;27.45;43.96;100057.13;4934143;29;20055;-86
2022/05/28 08:07:27;;;;;;;13.07;3.50;;;;;;;27.49;44.50;100063.41;4933709;29;20054;-85
2022/05/28 08:10:12;;;;;;;18.58;4.32;;;;;;;27.57;44.61;100056.38;4933773;29;20070;-86
2022/05/28 08:13:07;;;;;;;23.48;4.60;;;;;;;27.62;43.69;100057.84;4942630;29;20044;-84
2022/05/28 08:15:55;;;;;;;;;;;;;;;27.44;45.05;100068.72;4937362;29;20412;-84
2022/05/28 08:18:41;;;;;;;22.63;6.07;;;;;;;27.36;44.54;100072.97;4935760;29;19915;-86
2022/05/28 08:24:32;;;;;;;102.55;8.00;;;;;;;27.27;44.35;100064.50;4931698;29;20032;-85
2022/05/28 08:27:17;;;;;;;9.90;3.38;;;;;;;27.41;43.64;100058.47;4937732;29;20044;-87
2022/05/28 08:30:03;;;;;;;19.85;4.20;;;;;;;27.32;43.76;100052.78;4940517;29;20039;-87
2022/05/28 08:32:48;;;;;;;15.23;3.30;;;;;;;27.57;43.60;100064.75;4945484;29;20052;-87
2022/05/28 08:35:35;;;;;;;13.85;3.45;;;;;;;27.57;42.76;100055.59;4945059;29;20059;-87
2022/05/28 08:38:22;;;;;;;12.38;3.00;;;;;;;27.62;43.09;100058.63;4945454;29;20043;-88
2022/05/28 08:41:13;;;;;;;36.85;6.13;;;;;;;27.66;43.05;100055.69;4939817;29;20036;-88
2022/05/28 08:44:08;;;;;;;81.90;5.25;;;;;;;27.65;42.70;100062.50;4953393;28;20055;-86
2022/05/28 08:46:55;;;;;;;;;;;;;;;27.84;42.42;100053.09;4952184;28;20054;-88
2022/05/28 08:49:41;;;;;;;12.32;3.42;;;;;;;27.86;41.94;100055.47;4944786;29;19924;-88
2022/05/28 08:52:33;;;;;;;13.50;3.05;;;;;;;27.74;42.26;100043.06;4943297;29;20059;-88
2022/05/28 08:55:22;;;;;;;10.18;2.88;;;;;;;27.85;42.40;100053.88;4941185;29;20050;-88
2022/05/28 08:58:12;;;;;;;19.98;4.10;;;;;;;27.86;41.70;100039.47;4941465;29;20062;-87
2022/05/28 09:01:12;;;;;;;10.27;3.03;;;;;;;27.79;41.88;100041.72;4934929;29;20036;-89
2022/05/28 09:04:03;;;;;;;19.08;3.95;;;;;;;27.77;42.55;100035.81;4951260;28;20418;-89
2022/05/28 09:06:53;;;;;;;31.70;4.28;;;;;;;27.77;42.57;100036.59;4957224;28;20432;-88
2022/05/28 09:09:47;;;;;;;9.32;2.75;;;;;;;27.82;42.23;100038.81;4947532;28;20028;-88
2022/05/28 09:12:42;;;;;;;10.47;3.37;;;;;;;27.74;42.11;100037.47;4943597;29;20055;-87
2022/05/28 09:15:28;;;;;;;10.95;3.15;;;;;;;27.86;41.96;100044.28;4944169;29;20440;-87
2022/05/28 09:18:14;;;;;;;18.55;3.88;;;;;;;27.59;41.64;100042.72;4954034;29;20047;-91
2022/05/28 09:20:59;;;;;;;7.47;2.97;;;;;;;27.80;41.56;100044.06;4944720;29;20035;-90
2022/05/28 09:23:50;;;;;;;13.35;2.85;;;;;;;27.79;41.56;100038.91;4953317;28;20059;-89
2022/05/28 09:26:46;;;;;;;6.60;2.97;;;;;;;27.75;41.98;100050.22;4943625;28;20038;-91
2022/05/28 09:29:46;;;;;;;14.50;4.13;;;;;;;27.72;42.11;100053.91;4943346;29;20050;-91
2022/05/28 09:32:47;;;;;;;22.40;5.03;;;;;;;27.69;42.00;100052.00;4940544;29;20046;-89
2022/05/28 09:35:40;;;;;;;40.95;4.90;;;;;;;27.74;42.21;100056.25;4953457;28;20516;-89
2022/05/28 09:38:39;;;;;;;15.32;3.78;;;;;;;27.92;42.09;100040.47;4943836;29;20047;-90
2022/05/28 09:41:27;;;;;;;19.35;4.82;;;;;;;27.91;41.74;100052.88;4940063;29;20058;-89
2022/05/28 09:44:38;;;;;;;12.68;4.43;;;;;;;27.79;41.95;100050.88;4940147;29;20115;-89
2022/05/28 09:47:24;;;;;;;13.48;4.85;;;;;;;27.88;42.68;100041.81;4957909;28;20414;-89
2022/05/28 09:50:27;;;;;;;15.85;5.90;;;;;;;27.89;43.07;100038.56;4947186;28;20036;-90
2022/05/28 09:56:37;;;;;;;19.10;5.15;;;;;;;28.01;40.71;100040.56;4949564;29;20055;-85
2022/05/28 09:59:28;;;;;;;9.30;2.95;;;;;;;28.21;39.32;100040.31;4948375;28;20051;-86
2022/05/28 10:02:26;;;;;;;50.13;6.97;;;;;;;28.08;39.76;100050.72;4929979;29;20054;-88
2022/05/28 10:05:17;;;;;;;35.20;4.97;;;;;;;28.08;39.88;100051.53;4943826;28;20054;-86
2022/05/28 10:08:11;;;;;;;13.00;5.07;;;;;;;27.87;40.19;100043.84;4929647;29;20046;-86
2022/05/28 10:11:00;;;;;;;24.50;4.32;;;;;;;27.94;40.54;100046.38;4936760;28;20043;-86
2022/05/28 10:13:48;;;;;;;21.92;5.00;;;;;;;27.97;40.36;100039.91;4936122;29;20046;-86
2022/05/28 10:16:38;;;;;;;27.48;5.25;;;;;;;27.94;40.43;100035.19;4947237;29;20385;-87
2022/05/28 10:19:29;;;;;;;24.08;5.18;;;;;;;28.04;40.49;100048.03;4934536;29;20055;-88
2022/05/28 10:22:18;;;;;;;19.77;4.78;;;;;;;28.17;39.21;100038.88;4940182;28;20043;-87
2022/05/28 10:25:23;;;;;;;38.97;5.80;;;;;;;28.02;39.33;100038.56;4942963;28;20039;-88
2022/05/28 10:28:09;;;;;;;19.92;5.63;;;;;;;27.88;39.76;100037.03;4947412;28;20047;-88
2022/05/28 10:30:55;;;;;;;22.70;5.70;;;;;;;28.16;40.17;100035.28;4938541;29;20420;-87
2022/05/28 10:33:43;;;;;;;14.57;4.30;;;;;;;28.12;39.46;100029.06;4934072;29;20424;-85
2022/05/28 10:36:33;;;;;;;28.30;5.78;;;;;;;27.91;39.26;100033.31;4937012;29;20046;-86
2022/05/28 10:39:18;;;;;;;20.30;5.63;;;;;;;27.83;40.31;100025.63;4931320;29;20058;-86
2022/05/28 10:42:07;;;;;;;10.55;4.38;;;;;;;27.95;40.37;100033.97;4940002;28;20051;-87
2022/05/28 10:44:52;;;;;;;17.45;6.97;;;;;;;27.93;40.17;100032.88;4937842;29;20047;-86
2022/05/28 10:47:40;;;;;;;19.55;5.50;;;;;;;27.92;40.76;100026.50;4961379;28;20535;-86
2022/05/28 10:50:57;;;;;;;17.52;5.82;;;;;;;27.91;40.51;100018.56;4958739;29;20054;-87
2022/05/28 10:53:56;;;;;;;15.18;6.00;;;;;;;28.03;41.18;100012.16;4958110;28;20054;-86
2022/05/28 10:56:48;;;;;;;15.20;4.97;;;;;;;27.87;41.72;100032.66;4959151;29;20070;-85
2022/05/28 10:59:59;;;;;;;22.55;6.25;;;;;;;27.70;42.02;100017.25;4958405;28;20043;-86
2022/05/28 11:02:46;;;;;;;13.40;5.10;;;;;;;27.75;41.91;100016.69;4936639;29;20051;-85
2022/05/28 11:06:02;;;;;;;13.10;5.32;;;;;;;27.73;42.25;100016.38;4943805;28;20051;-86
2022/05/28 11:09:06;;;;;;;10.93;5.13;;;;;;;27.96;42.69;100009.59;4958397;28;20047;-84
2022/05/28 11:12:14;;;;;;;34.13;5.57;;;;;;;27.82;42.60;100010.88;4960699;28;20120;-86
2022/05/28 11:15:08;;;;;;;14.15;5.18;;;;;;;27.81;42.88;100005.72;4929390;29;20131;-87
2022/05/28 11:18:20;;;;;;;20.45;5.57;;;;;;;27.91;42.12;100010.97;4944302;28;20032;-89
2022/05/28 11:21:15;;;;;;;23.90;4.45;;;;;;;27.77;41.63;100019.81;4932335;29;20066;-86
2022/05/28 11:24:00;;;;;;;;;;;;;;;27.55;42.28;100013.34;4949228;29;20050;-89
2022/05/28 11:27:00;;;;;;;13.45;3.35;;;;;;;27.75;41.89;99999.13;4938162;29;19914;-87
2022/05/28 11:30:06;;;;;;;24.25;5.32;;;;;;;27.65;42.39;100012.22;4944803;28;20524;-86
2022/05/28 11:32:58;;;;;;;14.73;3.95;;;;;;;27.67;42.70;99983.84;4919357;29;20063;-88
2022/05/28 11:35:51;;;;;;;11.95;4.85;;;;;;;27.76;42.08;100007.06;4920377;29;20067;-89
2022/05/28 11:38:53;;;;;;;13.10;4.43;;;;;;;27.74;42.38;100003.94;4948862;28;20055;-88
2022/05/28 11:41:54;;;;;;;48.78;5.82;;;;;;;27.58;41.74;100006.88;4923890;29;20039;-88
2022/05/28 11:44:44;;;;;;;13.88;4.85;;;;;;;27.42;41.41;100010.56;4951670;28;20421;-88
2022/05/28 11:48:07;;;;;;;45.70;5.60;;;;;;;27.53;41.46;100007.44;4936296;29;20050;-89
2022/05/28 11:54:33;;;;;;;12.90;4.10;;;;;;;27.43;43.11;100014.88;4929456;29;20510;-88
2022/05/28 11:57:35;;;;;;;12.32;3.28;;;;;;;27.45;42.60;100014.44;4943247;28;20040;-88
2022/05/28 12:00:22;;;;;;;71.05;7.35;;;;;;;27.52;42.02;100025.44;4943137;28;20044;-89
2022/05/28 12:03:25;;;;;;;16.88;5.70;;;;;;;27.24;42.16;100039.00;4935129;29;20058;-89
2022/05/28 12:06:25;;;;;;;14.02;3.97;;;;;;;27.02;42.63;100012.19;4959628;28;20066;-91
2022/05/28 12:09:18;;;;;;;18.90;4.30;;;;;;;27.07;41.77;100001.25;4952466;28;20047;-90
2022/05/28 12:12:06;;;;;;;44.58;7.22;;;;;;;26.65;42.26;100003.25;4936356;29;20040;-89
2022/05/28 12:15:24;;;;;;;9.88;2.92;;;;;;;26.64;42.73;100012.06;4943358;29;20059;-89
2022/05/28 12:18:22;;;;;;;15.00;4.00;;;;;;;26.70;43.25;99991.56;4941450;29;20050;-90
2022/05/28 12:21:07;;;;;;;9.27;3.08;;;;;;;26.43;42.28;99991.13;4942495;29;20050;-89
2022/05/28 12:24:04;;;;;;;17.83;3.38;;;;;;;26.44;43.96;99994.72;4942142;29;20528;-88
2022/05/28 12:30:01;;;;;;;22.38;2.65;;;;;;;26.95;42.96;99974.13;4943169;29;20113;-90
2022/05/28 18:29:48;;;;;;;1.55;0.60;;;;;;;22.86;47.82;100087.78;4947537;28;20047;-63
2022/05/28 18:32:34;;;;;;;3.35;0.90;;;;;;;22.85;47.42;100075.13;4947944;28;20047;-64
2022/05/28 18:35:19;;;;;;;3.83;0.50;;;;;;;22.74;47.63;100069.72;4951642;28;20741;-64
2022/05/28 18:38:05;;;;;;;6.82;1.00;;;;;;;22.74;48.01;100061.38;4935903;29;20059;-63
2022/05/28 18:40:51;;;;;;;4.13;0.43;;;;;;;22.82;48.01;100065.63;4942924;28;20510;-63
2022/05/28 18:43:37;;;;;;;2.05;0.52;;;;;;;22.78;47.60;100081.53;4943383;28;20170;-64
2022/05/28 18:46:21;;;;;;;3.42;0.50;;;;;;;22.53;47.92;100069.91;4942552;28;20051;-64
2022/05/28 18:49:06;;;;;;;7.70;0.65;;;;;;;22.41;48.13;100067.63;4963785;23;20456;-82
2022/05/28 18:51:53;;;;;;;2.97;1.30;;;;;;;22.51;47.82;100086.13;4959596;28;20050;-82
2022/05/28 18:54:40;;;;;;;6.88;0.85;;;;;;;22.42;47.75;100088.63;4962668;28;20054;-82
2022/05/28 18:57:25;;;;;;;1.40;0.40;;;;;;;22.38;47.36;100093.41;4959062;29;20046;-82
2022/05/28 19:00:13;;;;;;;1.38;0.60;;;;;;;22.30;46.75;100087.13;4959929;29;20058;-82
2022/05/28 19:02:57;;;;;;;1.73;0.40;;;;;;;22.33;46.87;100068.91;4961809;23;20572;-66
2022/05/28 19:05:46;;;;;;;1.98;0.47;;;;;;;22.43;46.92;100076.34;4942228;28;20046;-66
2022/05/28 19:08:34;;;;;;;3.58;0.38;;;;;;;22.36;45.95;100082.72;4934312;29;20050;-66
2022/05/28 19:11:20;;;;;;;0.88;0.40;;;;;;;22.29;46.23;100082.81;4942291;29;20042;-67